PILOTS ONLINE: 184    ATC ONLINE: 27

CBBC

Bella Bella (Campbell Island) Airport

Location

City Bella Bella
Country  Canada
Latitude 52° 11' 6" N
Longitude 128° 9' 25" W
Elevation 141 ft
Type Small Airport

Map

Weather

METAR
2014/10/23 03:00
CBBC 230300Z AUTO 15004KT 9SM CLR 08/06 A2946 RMK SLP978
TAF
2014/10/23 01:00
TAF CBBC 230038Z 2301/2305 14005KT P6SM FEW020 OVC050 
      TEMPO 2301/2305 5SM -SHRA BR BKN020 OVC040 PROB30 2301/2305 VRB15G25KT 2SM TSRA BKN008 OVC020CB 
      RMK FCST BASED ON AUTO OBS. NXT FCST WILL BE ISSUED AT 231245Z

Runways

13/31 3700 ft / 75 ft

Outbound flights

Callsign Flying to Pilot ATD/STD ETA Aircraft

Inbound flights

Callsign Flying from Pilot ATD ETA Aircraft